sensor_id;sensor_type;location;lat;lon;timestamp;temperature;humidity
53208;DHT22;39093;52.788;6.940;2022-08-04T00:04:43;22.50;99.90
53208;DHT22;39093;52.788;6.940;2022-08-04T00:07:29;22.50;99.90
53208;DHT22;39093;52.788;6.940;2022-08-04T00:10:13;22.50;99.90
53208;DHT22;39093;52.788;6.940;2022-08-04T00:12:45;22.50;99.90
53208;DHT22;39093;52.788;6.940;2022-08-04T00:15:14;22.40;99.90
53208;DHT22;39093;52.788;6.940;2022-08-04T00:18:09;22.50;99.90
53208;DHT22;39093;52.788;6.940;2022-08-04T00:20:41;22.40;99.90
53208;DHT22;39093;52.788;6.940;2022-08-04T00:23:08;22.40;99.90
53208;DHT22;39093;52.788;6.940;2022-08-04T00:25:39;22.40;99.90
53208;DHT22;39093;52.788;6.940;2022-08-04T00:28:07;22.30;99.90
53208;DHT22;39093;52.788;6.940;2022-08-04T00:30:35;22.30;99.90
53208;DHT22;39093;52.788;6.940;2022-08-04T00:33:02;22.30;99.90
53208;DHT22;39093;52.788;6.940;2022-08-04T00:35:29;22.20;99.90
53208;DHT22;39093;52.788;6.940;2022-08-04T00:37:57;22.20;99.90
53208;DHT22;39093;52.788;6.940;2022-08-04T00:40:59;22.20;99.90
53208;DHT22;39093;52.788;6.940;2022-08-04T00:43:35;22.10;99.90
53208;DHT22;39093;52.788;6.940;2022-08-04T00:46:26;22.10;99.90
53208;DHT22;39093;52.788;6.940;2022-08-04T00:52:00;22.10;99.90
53208;DHT22;39093;52.788;6.940;2022-08-04T00:55:22;22.00;99.90
53208;DHT22;39093;52.788;6.940;2022-08-04T01:01:06;22.00;99.90
53208;DHT22;39093;52.788;6.940;2022-08-04T01:04:03;22.00;99.90
53208;DHT22;39093;52.788;6.940;2022-08-04T01:06:48;21.90;99.90
53208;DHT22;39093;52.788;6.940;2022-08-04T01:15:06;21.80;99.90
53208;DHT22;39093;52.788;6.940;2022-08-04T01:20:10;21.80;99.90
53208;DHT22;39093;52.788;6.940;2022-08-04T01:22:59;21.70;99.90
53208;DHT22;39093;52.788;6.940;2022-08-04T01:29:13;21.60;99.90
53208;DHT22;39093;52.788;6.940;2022-08-04T01:32:01;21.70;99.90
53208;DHT22;39093;52.788;6.940;2022-08-04T01:34:34;21.60;99.90
53208;DHT22;39093;52.788;6.940;2022-08-04T01:40:06;21.60;99.90
53208;DHT22;39093;52.788;6.940;2022-08-04T01:42:35;21.60;99.90
53208;DHT22;39093;52.788;6.940;2022-08-04T01:45:05;21.60;99.90
53208;DHT22;39093;52.788;6.940;2022-08-04T01:47:34;21.50;99.90
53208;DHT22;39093;52.788;6.940;2022-08-04T01:50:10;21.50;99.90
53208;DHT22;39093;52.788;6.940;2022-08-04T01:52:38;21.50;99.90
53208;DHT22;39093;52.788;6.940;2022-08-04T01:55:11;21.50;99.90
53208;DHT22;39093;52.788;6.940;2022-08-04T01:57:47;21.40;99.90
53208;DHT22;39093;52.788;6.940;2022-08-04T02:00:28;21.40;99.90
53208;DHT22;39093;52.788;6.940;2022-08-04T02:02:55;21.30;99.90
53208;DHT22;39093;52.788;6.940;2022-08-04T02:05:24;21.30;99.90
53208;DHT22;39093;52.788;6.940;2022-08-04T02:08:20;21.30;99.90
53208;DHT22;39093;52.788;6.940;2022-08-04T02:16:27;21.30;99.90
53208;DHT22;39093;52.788;6.940;2022-08-04T02:21:56;21.30;99.90
53208;DHT22;39093;52.788;6.940;2022-08-04T02:24:26;21.20;99.90
53208;DHT22;39093;52.788;6.940;2022-08-04T02:26:55;21.20;99.90
53208;DHT22;39093;52.788;6.940;2022-08-04T02:29:43;21.20;99.90
53208;DHT22;39093;52.788;6.940;2022-08-04T02:32:34;21.20;99.90
53208;DHT22;39093;52.788;6.940;2022-08-04T02:35:07;21.20;99.90
53208;DHT22;39093;52.788;6.940;2022-08-04T02:37:34;21.10;99.90
53208;DHT22;39093;52.788;6.940;2022-08-04T02:40:04;21.10;99.90
53208;DHT22;39093;52.788;6.940;2022-08-04T02:42:33;21.10;99.90
53208;DHT22;39093;52.788;6.940;2022-08-04T02:45:00;21.10;99.90
53208;DHT22;39093;52.788;6.940;2022-08-04T02:47:28;21.10;99.90
53208;DHT22;39093;52.788;6.940;2022-08-04T02:50:17;21.10;99.90
53208;DHT22;39093;52.788;6.940;2022-08-04T02:52:57;21.00;99.90
53208;DHT22;39093;52.788;6.940;2022-08-04T02:55:28;21.00;99.90
53208;DHT22;39093;52.788;6.940;2022-08-04T02:57:57;21.10;99.90
53208;DHT22;39093;52.788;6.940;2022-08-04T03:00:24;21.10;99.90
53208;DHT22;39093;52.788;6.940;2022-08-04T03:09:22;21.00;99.90
53208;DHT22;39093;52.788;6.940;2022-08-04T03:11:55;21.00;99.90
53208;DHT22;39093;52.788;6.940;2022-08-04T03:26:47;21.00;99.90
53208;DHT22;39093;52.788;6.940;2022-08-04T03:41:24;20.90;99.90
53208;DHT22;39093;52.788;6.940;2022-08-04T03:58:04;20.80;99.90
53208;DHT22;39093;52.788;6.940;2022-08-04T04:00:44;20.80;99.90
53208;DHT22;39093;52.788;6.940;2022-08-04T04:06:24;20.80;99.90
53208;DHT22;39093;52.788;6.940;2022-08-04T04:09:37;20.80;99.90
53208;DHT22;39093;52.788;6.940;2022-08-04T04:15:31;20.80;99.90
53208;DHT22;39093;52.788;6.940;2022-08-04T04:35:40;20.80;99.90
53208;DHT22;39093;52.788;6.940;2022-08-04T04:41:23;20.80;99.90
53208;DHT22;39093;52.788;6.940;2022-08-04T04:57:17;20.90;99.90
53208;DHT22;39093;52.788;6.940;2022-08-04T05:00:08;21.00;99.90
53208;DHT22;39093;52.788;6.940;2022-08-04T05:11:31;21.00;99.90
53208;DHT22;39093;52.788;6.940;2022-08-04T05:14:46;21.10;99.90
53208;DHT22;39093;52.788;6.940;2022-08-04T05:19:50;21.10;99.90
53208;DHT22;39093;52.788;6.940;2022-08-04T05:25:26;21.10;99.90
53208;DHT22;39093;52.788;6.940;2022-08-04T05:30:30;21.30;99.90
53208;DHT22;39093;52.788;6.940;2022-08-04T05:33:01;21.20;99.90
53208;DHT22;39093;52.788;6.940;2022-08-04T05:35:36;21.30;99.90
53208;DHT22;39093;52.788;6.940;2022-08-04T05:38:30;21.30;99.90
53208;DHT22;39093;52.788;6.940;2022-08-04T05:41:00;21.40;99.90
53208;DHT22;39093;52.788;6.940;2022-08-04T05:43:27;21.40;99.90
53208;DHT22;39093;52.788;6.940;2022-08-04T05:45:55;21.40;99.90
53208;DHT22;39093;52.788;6.940;2022-08-04T05:48:24;21.50;99.90
53208;DHT22;39093;52.788;6.940;2022-08-04T05:50:51;21.50;99.90
53208;DHT22;39093;52.788;6.940;2022-08-04T05:53:23;21.60;99.90
53208;DHT22;39093;52.788;6.940;2022-08-04T05:55:51;21.60;99.90
53208;DHT22;39093;52.788;6.940;2022-08-04T05:58:28;21.70;99.90
53208;DHT22;39093;52.788;6.940;2022-08-04T06:00:59;21.70;99.90
53208;DHT22;39093;52.788;6.940;2022-08-04T06:03:28;21.70;99.90
53208;DHT22;39093;52.788;6.940;2022-08-04T06:05:56;21.80;99.90
53208;DHT22;39093;52.788;6.940;2022-08-04T06:08:24;21.80;99.90
53208;DHT22;39093;52.788;6.940;2022-08-04T06:10:52;21.80;99.90
53208;DHT22;39093;52.788;6.940;2022-08-04T06:13:28;21.90;99.90
53208;DHT22;39093;52.788;6.940;2022-08-04T06:16:17;21.90;99.90
53208;DHT22;39093;52.788;6.940;2022-08-04T06:18:59;22.00;99.90
53208;DHT22;39093;52.788;6.940;2022-08-04T06:21:48;22.00;99.90
53208;DHT22;39093;52.788;6.940;2022-08-04T06:24:18;22.10;99.90
53208;DHT22;39093;52.788;6.940;2022-08-04T06:26:48;22.10;99.90
53208;DHT22;39093;52.788;6.940;2022-08-04T06:29:17;22.10;99.90
53208;DHT22;39093;52.788;6.940;2022-08-04T06:32:02;22.10;99.90
53208;DHT22;39093;52.788;6.940;2022-08-04T06:34:59;22.20;99.90
53208;DHT22;39093;52.788;6.940;2022-08-04T06:37:30;22.30;99.90
53208;DHT22;39093;52.788;6.940;2022-08-04T06:40:13;22.30;99.90
53208;DHT22;39093;52.788;6.940;2022-08-04T06:43:07;22.40;99.90
53208;DHT22;39093;52.788;6.940;2022-08-04T06:45:36;22.70;99.90
53208;DHT22;39093;52.788;6.940;2022-08-04T06:48:06;22.90;99.90
53208;DHT22;39093;52.788;6.940;2022-08-04T06:50:34;23.10;99.90
53208;DHT22;39093;52.788;6.940;2022-08-04T06:53:21;23.30;99.90
53208;DHT22;39093;52.788;6.940;2022-08-04T06:55:49;23.50;99.90
53208;DHT22;39093;52.788;6.940;2022-08-04T06:58:18;23.80;99.90
53208;DHT22;39093;52.788;6.940;2022-08-04T07:00:47;24.10;99.90
53208;DHT22;39093;52.788;6.940;2022-08-04T07:03:15;24.30;99.90
53208;DHT22;39093;52.788;6.940;2022-08-04T07:05:45;24.50;99.90
53208;DHT22;39093;52.788;6.940;2022-08-04T07:08:13;24.70;99.90
53208;DHT22;39093;52.788;6.940;2022-08-04T07:10:40;24.80;99.90
53208;DHT22;39093;52.788;6.940;2022-08-04T07:13:07;24.90;99.90
53208;DHT22;39093;52.788;6.940;2022-08-04T07:15:35;25.00;99.90
53208;DHT22;39093;52.788;6.940;2022-08-04T07:18:04;25.10;99.90
53208;DHT22;39093;52.788;6.940;2022-08-04T07:20:32;25.00;99.90
53208;DHT22;39093;52.788;6.940;2022-08-04T07:23:03;25.00;99.90
53208;DHT22;39093;52.788;6.940;2022-08-04T07:25:35;25.00;99.90
53208;DHT22;39093;52.788;6.940;2022-08-04T07:28:24;24.90;99.90
53208;DHT22;39093;52.788;6.940;2022-08-04T07:30:53;24.90;99.90
53208;DHT22;39093;52.788;6.940;2022-08-04T07:33:21;24.80;99.90
53208;DHT22;39093;52.788;6.940;2022-08-04T07:35:56;24.90;99.90
53208;DHT22;39093;52.788;6.940;2022-08-04T07:38:40;24.90;99.90
53208;DHT22;39093;52.788;6.940;2022-08-04T07:41:22;25.00;99.90
53208;DHT22;39093;52.788;6.940;2022-08-04T07:44:06;25.10;99.90
53208;DHT22;39093;52.788;6.940;2022-08-04T07:46:35;25.30;99.90
53208;DHT22;39093;52.788;6.940;2022-08-04T07:49:03;25.40;99.90
53208;DHT22;39093;52.788;6.940;2022-08-04T07:51:31;25.40;99.90
53208;DHT22;39093;52.788;6.940;2022-08-04T07:53:58;25.50;99.90
53208;DHT22;39093;52.788;6.940;2022-08-04T07:56:26;25.60;99.90
53208;DHT22;39093;52.788;6.940;2022-08-04T07:58:54;25.60;99.90
53208;DHT22;39093;52.788;6.940;2022-08-04T08:01:23;25.50;99.90
53208;DHT22;39093;52.788;6.940;2022-08-04T08:03:52;25.50;99.90
53208;DHT22;39093;52.788;6.940;2022-08-04T08:06:19;25.50;99.90
53208;DHT22;39093;52.788;6.940;2022-08-04T08:09:06;25.50;99.90
53208;DHT22;39093;52.788;6.940;2022-08-04T08:11:41;25.60;99.90
53208;DHT22;39093;52.788;6.940;2022-08-04T08:14:28;25.80;99.90
53208;DHT22;39093;52.788;6.940;2022-08-04T08:16:58;25.80;99.90
53208;DHT22;39093;52.788;6.940;2022-08-04T08:19:29;25.80;99.90
53208;DHT22;39093;52.788;6.940;2022-08-04T08:21:59;25.80;99.90
53208;DHT22;39093;52.788;6.940;2022-08-04T08:24:30;25.70;99.90
53208;DHT22;39093;52.788;6.940;2022-08-04T08:26:57;25.70;99.90
53208;DHT22;39093;52.788;6.940;2022-08-04T08:29:27;25.60;99.90
53208;DHT22;39093;52.788;6.940;2022-08-04T08:31:55;25.60;99.90
53208;DHT22;39093;52.788;6.940;2022-08-04T08:34:29;25.60;99.90
53208;DHT22;39093;52.788;6.940;2022-08-04T08:37:29;25.60;99.90
53208;DHT22;39093;52.788;6.940;2022-08-04T08:39:58;25.60;99.90
53208;DHT22;39093;52.788;6.940;2022-08-04T08:51:01;26.00;99.90
53208;DHT22;39093;52.788;6.940;2022-08-04T09:05:15;27.00;99.90
53208;DHT22;39093;52.788;6.940;2022-08-04T09:08:00;27.20;99.80
53208;DHT22;39093;52.788;6.940;2022-08-04T09:13:09;27.40;99.00
53208;DHT22;39093;52.788;6.940;2022-08-04T09:15:48;27.50;99.90
53208;DHT22;39093;52.788;6.940;2022-08-04T09:18:26;27.60;98.70
53208;DHT22;39093;52.788;6.940;2022-08-04T09:27:25;28.00;98.50
53208;DHT22;39093;52.788;6.940;2022-08-04T09:35:41;28.20;96.90
53208;DHT22;39093;52.788;6.940;2022-08-04T09:44:46;28.30;96.80
53208;DHT22;39093;52.788;6.940;2022-08-04T09:50:32;28.40;96.70
53208;DHT22;39093;52.788;6.940;2022-08-04T09:58:43;28.50;96.20
53208;DHT22;39093;52.788;6.940;2022-08-04T10:01:23;28.50;95.20
53208;DHT22;39093;52.788;6.940;2022-08-04T10:03:54;28.70;95.10
53208;DHT22;39093;52.788;6.940;2022-08-04T10:06:31;28.80;94.20
53208;DHT22;39093;52.788;6.940;2022-08-04T10:14:36;29.20;94.00
53208;DHT22;39093;52.788;6.940;2022-08-04T10:17:22;29.20;94.40
53208;DHT22;39093;52.788;6.940;2022-08-04T10:22:45;29.10;94.50
53208;DHT22;39093;52.788;6.940;2022-08-04T10:28:38;29.20;93.40
53208;DHT22;39093;52.788;6.940;2022-08-04T10:31:09;29.30;93.00
53208;DHT22;39093;52.788;6.940;2022-08-04T10:33:48;29.40;93.80
53208;DHT22;39093;52.788;6.940;2022-08-04T10:36:20;29.50;93.70
53208;DHT22;39093;52.788;6.940;2022-08-04T10:39:06;29.50;93.10
53208;DHT22;39093;52.788;6.940;2022-08-04T10:45:11;29.50;92.80
53208;DHT22;39093;52.788;6.940;2022-08-04T10:47:55;29.40;94.10
53208;DHT22;39093;52.788;6.940;2022-08-04T10:50:28;29.40;94.30
53208;DHT22;39093;52.788;6.940;2022-08-04T10:53:08;29.50;94.20
53208;DHT22;39093;52.788;6.940;2022-08-04T10:55:43;29.60;93.60
53208;DHT22;39093;52.788;6.940;2022-08-04T10:58:39;29.90;93.00
53208;DHT22;39093;52.788;6.940;2022-08-04T11:01:15;30.20;94.50
53208;DHT22;39093;52.788;6.940;2022-08-04T11:04:11;30.30;93.80
53208;DHT22;39093;52.788;6.940;2022-08-04T11:06:53;30.40;94.10
53208;DHT22;39093;52.788;6.940;2022-08-04T11:09:21;30.40;93.60
53208;DHT22;39093;52.788;6.940;2022-08-04T11:11:55;30.50;93.80
53208;DHT22;39093;52.788;6.940;2022-08-04T11:14:37;30.60;93.70
53208;DHT22;39093;52.788;6.940;2022-08-04T11:17:35;30.70;94.60
53208;DHT22;39093;52.788;6.940;2022-08-04T11:20:26;30.90;94.80
53208;DHT22;39093;52.788;6.940;2022-08-04T11:23:14;31.00;94.90
53208;DHT22;39093;52.788;6.940;2022-08-04T11:31:13;30.70;94.80
53208;DHT22;39093;52.788;6.940;2022-08-04T11:39:52;30.10;95.20
53208;DHT22;39093;52.788;6.940;2022-08-04T11:42:26;30.00;95.50
53208;DHT22;39093;52.788;6.940;2022-08-04T11:50:28;29.70;94.90
53208;DHT22;39093;52.788;6.940;2022-08-04T11:52:56;29.50;94.90
53208;DHT22;39093;52.788;6.940;2022-08-04T11:55:25;29.50;94.80
53208;DHT22;39093;52.788;6.940;2022-08-04T11:57:53;29.40;94.70
53208;DHT22;39093;52.788;6.940;2022-08-04T12:00:21;29.20;94.30
53208;DHT22;39093;52.788;6.940;2022-08-04T12:06:21;28.70;94.90
53208;DHT22;39093;52.788;6.940;2022-08-04T12:15:17;28.10;95.30
53208;DHT22;39093;52.788;6.940;2022-08-04T12:20:25;28.00;95.70
53208;DHT22;39093;52.788;6.940;2022-08-04T12:23:21;27.90;95.60
53208;DHT22;39093;52.788;6.940;2022-08-04T12:25:53;27.80;94.90
53208;DHT22;39093;52.788;6.940;2022-08-04T12:28:28;27.70;95.00
53208;DHT22;39093;52.788;6.940;2022-08-04T12:31:37;27.60;94.60
53208;DHT22;39093;52.788;6.940;2022-08-04T12:34:16;27.40;94.50
53208;DHT22;39093;52.788;6.940;2022-08-04T12:37:03;27.30;94.60
53208;DHT22;39093;52.788;6.940;2022-08-04T12:39:32;27.10;94.80
53208;DHT22;39093;52.788;6.940;2022-08-04T12:42:28;27.00;95.20
53208;DHT22;39093;52.788;6.940;2022-08-04T12:44:58;26.90;95.30
53208;DHT22;39093;52.788;6.940;2022-08-04T12:47:30;26.90;95.40
53208;DHT22;39093;52.788;6.940;2022-08-04T12:50:00;26.80;95.50
53208;DHT22;39093;52.788;6.940;2022-08-04T12:52:41;26.70;95.60
53208;DHT22;39093;52.788;6.940;2022-08-04T12:55:31;26.70;96.70
53208;DHT22;39093;52.788;6.940;2022-08-04T12:58:02;26.60;96.70
53208;DHT22;39093;52.788;6.940;2022-08-04T13:00:34;26.40;97.90
53208;DHT22;39093;52.788;6.940;2022-08-04T13:03:13;26.20;99.90
53208;DHT22;39093;52.788;6.940;2022-08-04T13:05:42;26.00;99.90
53208;DHT22;39093;52.788;6.940;2022-08-04T13:08:11;25.80;99.90
53208;DHT22;39093;52.788;6.940;2022-08-04T13:10:40;25.60;99.90
53208;DHT22;39093;52.788;6.940;2022-08-04T13:13:28;25.50;99.90
53208;DHT22;39093;52.788;6.940;2022-08-04T13:16:07;25.30;99.90
53208;DHT22;39093;52.788;6.940;2022-08-04T13:18:40;25.20;99.90
53208;DHT22;39093;52.788;6.940;2022-08-04T13:21:15;25.20;99.90
53208;DHT22;39093;52.788;6.940;2022-08-04T13:23:52;25.20;99.90
53208;DHT22;39093;52.788;6.940;2022-08-04T13:29:33;25.30;99.90
53208;DHT22;39093;52.788;6.940;2022-08-04T13:32:22;25.40;99.90
53208;DHT22;39093;52.788;6.940;2022-08-04T13:34:54;25.70;99.90
53208;DHT22;39093;52.788;6.940;2022-08-04T13:37:35;25.90;99.90
53208;DHT22;39093;52.788;6.940;2022-08-04T13:40:06;26.10;99.90
53208;DHT22;39093;52.788;6.940;2022-08-04T13:42:36;26.20;99.90
53208;DHT22;39093;52.788;6.940;2022-08-04T13:45:06;26.50;99.90
53208;DHT22;39093;52.788;6.940;2022-08-04T13:47:43;27.00;99.90
53208;DHT22;39093;52.788;6.940;2022-08-04T13:50:29;27.60;99.90
53208;DHT22;39093;52.788;6.940;2022-08-04T13:52:58;28.20;99.90
53208;DHT22;39093;52.788;6.940;2022-08-04T13:55:33;28.80;99.90
53208;DHT22;39093;52.788;6.940;2022-08-04T13:58:22;29.40;99.90
53208;DHT22;39093;52.788;6.940;2022-08-04T14:06:33;30.90;98.50
53208;DHT22;39093;52.788;6.940;2022-08-04T14:09:09;31.40;97.20
53208;DHT22;39093;52.788;6.940;2022-08-04T14:11:46;31.60;95.70
53208;DHT22;39093;52.788;6.940;2022-08-04T14:14:35;31.70;97.00
53208;DHT22;39093;52.788;6.940;2022-08-04T14:17:11;31.70;95.20
53208;DHT22;39093;52.788;6.940;2022-08-04T14:22:35;31.70;95.10
53208;DHT22;39093;52.788;6.940;2022-08-04T14:25:11;31.50;93.90
53208;DHT22;39093;52.788;6.940;2022-08-04T14:27:55;31.50;93.70
53208;DHT22;39093;52.788;6.940;2022-08-04T14:30:34;31.70;92.80
53208;DHT22;39093;52.788;6.940;2022-08-04T14:33:07;32.20;93.70
53208;DHT22;39093;52.788;6.940;2022-08-04T14:35:58;32.70;92.50
53208;DHT22;39093;52.788;6.940;2022-08-04T14:38:45;33.10;92.00
53208;DHT22;39093;52.788;6.940;2022-08-04T14:41:14;33.30;91.50
53208;DHT22;39093;52.788;6.940;2022-08-04T14:43:46;33.50;91.30
53208;DHT22;39093;52.788;6.940;2022-08-04T14:46:14;33.50;90.40
53208;DHT22;39093;52.788;6.940;2022-08-04T14:49:02;33.70;90.40
53208;DHT22;39093;52.788;6.940;2022-08-04T14:51:41;33.80;90.70
53208;DHT22;39093;52.788;6.940;2022-08-04T14:54:08;34.00;88.40
53208;DHT22;39093;52.788;6.940;2022-08-04T14:56:53;33.90;86.00
53208;DHT22;39093;52.788;6.940;2022-08-04T14:59:21;33.50;86.00
53208;DHT22;39093;52.788;6.940;2022-08-04T15:01:48;33.40;88.20
53208;DHT22;39093;52.788;6.940;2022-08-04T15:04:28;33.50;86.30
53208;DHT22;39093;52.788;6.940;2022-08-04T15:06:57;33.60;84.80
53208;DHT22;39093;52.788;6.940;2022-08-04T15:09:31;33.50;84.50
53208;DHT22;39093;52.788;6.940;2022-08-04T15:11:59;33.60;84.80
53208;DHT22;39093;52.788;6.940;2022-08-04T15:14:26;33.30;81.60
53208;DHT22;39093;52.788;6.940;2022-08-04T15:17:04;32.60;83.20
53208;DHT22;39093;52.788;6.940;2022-08-04T15:19:53;32.20;83.40
53208;DHT22;39093;52.788;6.940;2022-08-04T15:22:21;31.90;85.00
53208;DHT22;39093;52.788;6.940;2022-08-04T15:24:48;31.50;85.40
53208;DHT22;39093;52.788;6.940;2022-08-04T15:27:24;30.90;85.70
53208;DHT22;39093;52.788;6.940;2022-08-04T15:29:56;30.60;87.40
53208;DHT22;39093;52.788;6.940;2022-08-04T15:32:39;30.40;87.60
53208;DHT22;39093;52.788;6.940;2022-08-04T15:35:16;30.00;88.00
53208;DHT22;39093;52.788;6.940;2022-08-04T16:16:27;28.00;91.10
53208;DHT22;39093;52.788;6.940;2022-08-04T16:19:06;27.90;91.50
53208;DHT22;39093;52.788;6.940;2022-08-04T16:26:50;27.70;91.40
53208;DHT22;39093;52.788;6.940;2022-08-04T16:34:48;27.40;91.30
53208;DHT22;39093;52.788;6.940;2022-08-04T16:37:37;27.40;90.60
53208;DHT22;39093;52.788;6.940;2022-08-04T16:43:13;27.20;90.60
53208;DHT22;39093;52.788;6.940;2022-08-04T16:45:57;27.10;90.70
53208;DHT22;39093;52.788;6.940;2022-08-04T16:48:34;27.00;90.60
53208;DHT22;39093;52.788;6.940;2022-08-04T16:51:08;27.00;90.70
53208;DHT22;39093;52.788;6.940;2022-08-04T16:53:38;26.90;91.30
53208;DHT22;39093;52.788;6.940;2022-08-04T16:56:32;26.80;91.30
53208;DHT22;39093;52.788;6.940;2022-08-04T16:59:08;26.80;91.30
53208;DHT22;39093;52.788;6.940;2022-08-04T17:01:37;26.70;92.00
53208;DHT22;39093;52.788;6.940;2022-08-04T17:04:10;26.60;92.60
53208;DHT22;39093;52.788;6.940;2022-08-04T17:06:40;26.50;92.70
53208;DHT22;39093;52.788;6.940;2022-08-04T17:09:13;26.40;92.80
53208;DHT22;39093;52.788;6.940;2022-08-04T17:11:45;26.30;92.90
53208;DHT22;39093;52.788;6.940;2022-08-04T17:14:12;26.20;92.90
53208;DHT22;39093;52.788;6.940;2022-08-04T17:16:41;26.00;92.90
53208;DHT22;39093;52.788;6.940;2022-08-04T17:19:09;25.90;93.00
53208;DHT22;39093;52.788;6.940;2022-08-04T17:22:00;25.80;92.70
53208;DHT22;39093;52.788;6.940;2022-08-04T17:24:37;25.70;92.60
53208;DHT22;39093;52.788;6.940;2022-08-04T17:27:04;25.50;92.60
53208;DHT22;39093;52.788;6.940;2022-08-04T17:29:51;25.40;92.70
53208;DHT22;39093;52.788;6.940;2022-08-04T17:32:19;25.30;92.70
53208;DHT22;39093;52.788;6.940;2022-08-04T17:34:58;25.20;92.80
53208;DHT22;39093;52.788;6.940;2022-08-04T17:37:25;25.10;92.80
53208;DHT22;39093;52.788;6.940;2022-08-04T17:40:12;25.00;92.80
53208;DHT22;39093;52.788;6.940;2022-08-04T17:42:44;25.00;92.60
53208;DHT22;39093;52.788;6.940;2022-08-04T17:45:15;24.90;92.60
53208;DHT22;39093;52.788;6.940;2022-08-04T17:48:06;24.90;92.50
53208;DHT22;39093;52.788;6.940;2022-08-04T17:50:34;24.80;92.50
53208;DHT22;39093;52.788;6.940;2022-08-04T17:53:05;24.70;92.40
53208;DHT22;39093;52.788;6.940;2022-08-04T17:55:43;24.70;92.40
53208;DHT22;39093;52.788;6.940;2022-08-04T17:58:20;24.60;92.30
53208;DHT22;39093;52.788;6.940;2022-08-04T18:00:58;24.60;92.60
53208;DHT22;39093;52.788;6.940;2022-08-04T18:03:46;24.60;92.70
53208;DHT22;39093;52.788;6.940;2022-08-04T18:06:20;24.60;93.10
53208;DHT22;39093;52.788;6.940;2022-08-04T18:08:54;24.60;93.60
53208;DHT22;39093;52.788;6.940;2022-08-04T18:11:51;24.60;93.90
53208;DHT22;39093;52.788;6.940;2022-08-04T18:14:18;24.50;94.20
53208;DHT22;39093;52.788;6.940;2022-08-04T18:16:54;24.50;94.20
53208;DHT22;39093;52.788;6.940;2022-08-04T18:19:21;24.50;94.30
53208;DHT22;39093;52.788;6.940;2022-08-04T18:21:49;24.40;94.40
53208;DHT22;39093;52.788;6.940;2022-08-04T18:24:33;24.40;94.50
53208;DHT22;39093;52.788;6.940;2022-08-04T18:27:24;24.30;94.70
53208;DHT22;39093;52.788;6.940;2022-08-04T18:29:57;24.20;94.70
53208;DHT22;39093;52.788;6.940;2022-08-04T18:32:47;24.20;94.60
53208;DHT22;39093;52.788;6.940;2022-08-04T21:56:09;20.70;99.90
53208;DHT22;39093;52.788;6.940;2022-08-04T21:58:36;20.70;99.90
53208;DHT22;39093;52.788;6.940;2022-08-04T22:01:11;20.70;99.90
53208;DHT22;39093;52.788;6.940;2022-08-04T22:03:58;20.70;99.90
53208;DHT22;39093;52.788;6.940;2022-08-04T22:06:25;20.70;99.90
53208;DHT22;39093;52.788;6.940;2022-08-04T22:08:55;20.70;99.90
53208;DHT22;39093;52.788;6.940;2022-08-04T22:11:29;20.70;99.90
53208;DHT22;39093;52.788;6.940;2022-08-04T22:14:15;20.70;99.90
53208;DHT22;39093;52.788;6.940;2022-08-04T22:16:42;20.70;99.90
53208;DHT22;39093;52.788;6.940;2022-08-04T22:19:11;20.70;99.90
53208;DHT22;39093;52.788;6.940;2022-08-04T22:21:39;20.70;99.90
53208;DHT22;39093;52.788;6.940;2022-08-04T22:24:12;20.60;99.90
53208;DHT22;39093;52.788;6.940;2022-08-04T22:26:40;20.50;99.90
53208;DHT22;39093;52.788;6.940;2022-08-04T22:29:08;20.50;99.90
53208;DHT22;39093;52.788;6.940;2022-08-04T22:31:41;20.40;99.90
53208;DHT22;39093;52.788;6.940;2022-08-04T22:34:24;20.40;99.90
53208;DHT22;39093;52.788;6.940;2022-08-04T22:36:51;20.40;99.90
53208;DHT22;39093;52.788;6.940;2022-08-04T22:39:19;20.40;99.90
53208;DHT22;39093;52.788;6.940;2022-08-04T22:41:53;20.40;99.90
53208;DHT22;39093;52.788;6.940;2022-08-04T22:44:30;20.40;99.90
53208;DHT22;39093;52.788;6.940;2022-08-04T22:46:58;20.40;99.90
53208;DHT22;39093;52.788;6.940;2022-08-04T22:49:25;20.40;99.90
53208;DHT22;39093;52.788;6.940;2022-08-04T22:51:57;20.30;99.90
53208;DHT22;39093;52.788;6.940;2022-08-04T22:54:24;20.40;99.90
53208;DHT22;39093;52.788;6.940;2022-08-04T22:56:55;20.40;99.90
53208;DHT22;39093;52.788;6.940;2022-08-04T22:59:23;20.40;99.90
53208;DHT22;39093;52.788;6.940;2022-08-04T23:01:50;20.40;99.90
53208;DHT22;39093;52.788;6.940;2022-08-04T23:04:28;20.40;99.90
53208;DHT22;39093;52.788;6.940;2022-08-04T23:06:55;20.40;99.90
53208;DHT22;39093;52.788;6.940;2022-08-04T23:09:22;20.30;99.90
53208;DHT22;39093;52.788;6.940;2022-08-04T23:12:10;20.30;99.90
53208;DHT22;39093;52.788;6.940;2022-08-04T23:14:54;20.20;99.90
53208;DHT22;39093;52.788;6.940;2022-08-04T23:17:22;20.20;99.90
53208;DHT22;39093;52.788;6.940;2022-08-04T23:19:50;20.20;99.90
53208;DHT22;39093;52.788;6.940;2022-08-04T23:22:25;20.10;99.90
53208;DHT22;39093;52.788;6.940;2022-08-04T23:25:12;20.10;99.90
53208;DHT22;39093;52.788;6.940;2022-08-04T23:27:43;20.10;99.90
53208;DHT22;39093;52.788;6.940;2022-08-04T23:30:16;20.00;99.90
53208;DHT22;39093;52.788;6.940;2022-08-04T23:32:45;20.00;99.90
53208;DHT22;39093;52.788;6.940;2022-08-04T23:35:12;19.90;99.90
53208;DHT22;39093;52.788;6.940;2022-08-04T23:37:41;19.90;99.90
53208;DHT22;39093;52.788;6.940;2022-08-04T23:40:23;19.80;99.90
53208;DHT22;39093;52.788;6.940;2022-08-04T23:43:01;19.80;99.90
53208;DHT22;39093;52.788;6.940;2022-08-04T23:45:44;19.70;99.90
53208;DHT22;39093;52.788;6.940;2022-08-04T23:48:31;19.60;99.90
53208;DHT22;39093;52.788;6.940;2022-08-04T23:51:04;19.50;99.90
53208;DHT22;39093;52.788;6.940;2022-08-04T23:53:44;19.50;99.90
53208;DHT22;39093;52.788;6.940;2022-08-04T23:56:31;19.40;99.90
53208;DHT22;39093;52.788;6.940;2022-08-04T23:58:58;19.30;99.90
